createdAt,value
2023-05-18T00:01:14.461Z,4.35
2023-05-18T00:03:42.219Z,4.80
2023-05-18T00:06:10.257Z,5.35
2023-05-18T00:08:37.514Z,5.15
2023-05-18T00:11:04.524Z,4.78
2023-05-18T00:13:31.205Z,3.97
2023-05-18T00:15:57.890Z,4.60
2023-05-18T00:18:24.870Z,5.15
2023-05-18T00:20:51.403Z,4.20
2023-05-18T00:23:17.846Z,4.57
2023-05-18T00:25:44.266Z,5.10
2023-05-18T00:28:12.599Z,5.22
2023-05-18T00:30:39.496Z,4.95
2023-05-18T00:33:06.173Z,4.88
2023-05-18T00:35:32.719Z,5.15
2023-05-18T00:37:59.171Z,5.57
2023-05-18T00:40:27.231Z,5.40
2023-05-18T00:42:53.824Z,5.38
2023-05-18T00:45:20.312Z,5.32
2023-05-18T00:47:47.278Z,5.53
2023-05-18T00:50:14.097Z,5.30
2023-05-18T00:52:41.266Z,5.60
2023-05-18T00:55:08.189Z,5.05
2023-05-18T00:57:36.656Z,5.03
2023-05-18T01:00:04.867Z,5.05
2023-05-18T01:02:31.620Z,5.15
2023-05-18T01:04:58.119Z,5.43
2023-05-18T01:07:26.524Z,5.38
2023-05-18T01:09:54.128Z,5.35
2023-05-18T01:12:34.579Z,5.55
2023-05-18T01:15:23.762Z,6.22
2023-05-18T01:18:15.258Z,6.00
2023-05-18T01:20:50.638Z,6.07
2023-05-18T01:23:41.478Z,5.72
2023-05-18T01:26:15.843Z,6.00
2023-05-18T01:28:46.211Z,6.70
2023-05-18T01:31:14.739Z,6.57
2023-05-18T01:33:41.513Z,5.90
2023-05-18T01:36:08.353Z,6.03
2023-05-18T01:38:34.993Z,6.82
2023-05-18T01:41:07.029Z,5.28
2023-05-18T01:43:35.755Z,6.72
2023-05-18T01:46:10.127Z,6.15
2023-05-18T01:48:38.124Z,6.10
2023-05-18T01:51:05.270Z,5.70
2023-05-18T01:53:59.578Z,5.53
2023-05-18T01:56:26.295Z,5.05
2023-05-18T01:58:53.218Z,5.25
2023-05-18T02:01:22.726Z,4.97
2023-05-18T02:03:49.359Z,8.38
2023-05-18T02:06:15.984Z,7.68
2023-05-18T02:08:42.618Z,6.43
2023-05-18T02:11:09.459Z,5.97
2023-05-18T02:13:35.960Z,5.70
2023-05-18T02:16:04.060Z,5.38
2023-05-18T02:18:34.160Z,5.15
2023-05-18T02:21:00.940Z,5.15
2023-05-18T02:23:27.590Z,4.40
2023-05-18T02:25:56.784Z,4.43
2023-05-18T02:28:23.650Z,4.60
2023-05-18T02:30:50.240Z,4.22
2023-05-18T02:33:17.736Z,4.38
2023-05-18T02:35:44.164Z,4.10
2023-05-18T02:38:10.843Z,4.05
2023-05-18T02:40:37.403Z,3.40
2023-05-18T02:43:03.950Z,4.32
2023-05-18T02:45:30.690Z,3.67
2023-05-18T02:47:57.505Z,3.80
2023-05-18T02:50:23.932Z,3.63
2023-05-18T02:52:51.232Z,3.80
2023-05-18T02:55:18.819Z,3.53
2023-05-18T02:57:46.889Z,3.63
2023-05-18T03:00:16.611Z,4.20
2023-05-18T03:02:44.260Z,3.45
2023-05-18T03:05:10.868Z,4.15
2023-05-18T03:07:37.286Z,3.47
2023-05-18T03:10:04.241Z,3.50
2023-05-18T03:12:30.638Z,3.28
2023-05-18T03:14:57.069Z,2.63
2023-05-18T03:17:23.863Z,3.00
2023-05-18T03:19:51.325Z,3.00
2023-05-18T03:22:17.745Z,2.72
2023-05-18T03:24:44.718Z,2.78
2023-05-18T03:27:13.006Z,3.08
2023-05-18T03:29:39.516Z,3.00
2023-05-18T03:32:06.375Z,3.17
2023-05-18T03:34:32.832Z,3.35
2023-05-18T03:36:59.809Z,6.13
2023-05-18T03:39:26.410Z,6.47
2023-05-18T03:41:53.014Z,5.47
2023-05-18T03:44:19.507Z,5.22
2023-05-18T03:46:46.323Z,4.55
2023-05-18T03:49:12.855Z,4.78
2023-05-18T03:51:39.364Z,3.97
2023-05-18T03:54:05.832Z,4.47
2023-05-18T03:56:32.403Z,4.57
2023-05-18T03:58:59.241Z,3.97
2023-05-18T04:01:25.836Z,3.70
2023-05-18T04:03:56.317Z,3.03
2023-05-18T04:06:23.694Z,3.03
2023-05-18T04:08:50.238Z,2.90
2023-05-18T04:11:16.739Z,3.45
2023-05-18T04:13:43.258Z,2.97
2023-05-18T04:16:13.487Z,2.72
2023-05-18T04:18:41.376Z,2.95
2023-05-18T04:21:10.387Z,3.03
2023-05-18T04:23:39.087Z,2.67
2023-05-18T04:26:06.219Z,2.80
2023-05-18T04:28:32.811Z,2.90
2023-05-18T04:30:59.902Z,3.30
2023-05-18T04:33:26.378Z,2.88
2023-05-18T04:35:55.566Z,2.72
2023-05-18T04:38:24.830Z,2.85
2023-05-18T04:40:51.283Z,3.00
2023-05-18T04:43:18.541Z,3.45
2023-05-18T04:45:50.605Z,2.92
2023-05-18T04:48:20.328Z,3.05
2023-05-18T04:50:47.058Z,2.90
2023-05-18T04:53:13.755Z,3.20
2023-05-18T04:55:40.298Z,3.25
2023-05-18T04:58:06.731Z,3.53
2023-05-18T05:00:33.228Z,3.00
2023-05-18T05:02:59.860Z,2.63
2023-05-18T05:05:27.087Z,3.25
2023-05-18T05:07:54.290Z,2.58
2023-05-18T05:10:21.197Z,2.90
2023-05-18T05:12:51.348Z,3.30
2023-05-18T05:15:18.768Z,3.72
2023-05-18T05:17:47.118Z,3.83
2023-05-18T05:20:13.769Z,3.55
2023-05-18T05:22:40.420Z,3.60
2023-05-18T05:25:07.239Z,3.20
2023-05-18T05:27:34.031Z,3.83
2023-05-18T05:30:00.549Z,3.63
2023-05-18T05:32:27.105Z,3.90
2023-05-18T05:34:53.626Z,3.72
2023-05-18T05:37:20.053Z,3.83
2023-05-18T05:39:46.553Z,3.53
2023-05-18T05:42:13.414Z,4.38
2023-05-18T05:44:40.903Z,3.58
2023-05-18T05:47:07.981Z,3.60
2023-05-18T05:49:34.473Z,3.67
2023-05-18T05:52:01.463Z,3.03
2023-05-18T05:54:27.882Z,3.33
2023-05-18T05:56:54.395Z,3.53
2023-05-18T05:59:22.328Z,3.58
2023-05-18T06:01:48.813Z,3.13
2023-05-18T06:04:15.940Z,3.10
2023-05-18T06:06:43.864Z,3.42
2023-05-18T06:09:10.754Z,3.13
2023-05-18T06:11:37.209Z,3.00
2023-05-18T06:14:03.686Z,3.13
2023-05-18T06:16:30.152Z,2.72
2023-05-18T06:18:56.655Z,2.58
2023-05-18T06:21:23.112Z,3.00
2023-05-18T06:23:49.564Z,2.85
2023-05-18T06:26:16.697Z,2.72
2023-05-18T06:28:43.815Z,2.40
2023-05-18T06:31:10.246Z,2.90
2023-05-18T06:33:36.818Z,2.70
2023-05-18T06:36:03.379Z,2.42
2023-05-18T06:38:29.779Z,2.50
2023-05-18T06:40:56.227Z,2.17
2023-05-18T06:43:22.655Z,2.00
2023-05-18T06:45:49.121Z,3.08
2023-05-18T06:48:15.681Z,2.65
2023-05-18T06:50:42.155Z,2.50
2023-05-18T06:53:08.567Z,2.35
2023-05-18T06:55:34.992Z,2.10
2023-05-18T06:58:02.635Z,2.30
2023-05-18T07:00:29.100Z,2.55
2023-05-18T07:02:55.578Z,2.53
2023-05-18T07:05:22.094Z,2.20
2023-05-18T07:07:49.101Z,2.60
2023-05-18T07:10:15.596Z,3.10
2023-05-18T07:12:42.082Z,2.40
2023-05-18T07:15:08.767Z,3.05
2023-05-18T07:17:35.293Z,3.20
2023-05-18T07:20:01.787Z,2.83
2023-05-18T07:22:28.250Z,2.90
2023-05-18T07:24:54.753Z,2.78
2023-05-18T07:27:21.187Z,2.42
2023-05-18T07:29:47.609Z,2.42
2023-05-18T07:32:14.097Z,2.65
2023-05-18T07:34:42.454Z,2.50
2023-05-18T07:37:09.431Z,2.00
2023-05-18T07:39:35.827Z,1.98
2023-05-18T07:42:02.414Z,2.50
2023-05-18T07:44:28.853Z,2.47
2023-05-18T07:46:55.339Z,2.15
2023-05-18T07:49:23.263Z,2.40
2023-05-18T07:51:50.409Z,1.75
2023-05-18T07:54:16.944Z,2.15
2023-05-18T07:56:44.154Z,2.00
2023-05-18T07:59:10.974Z,1.88
2023-05-18T08:01:38.388Z,1.98
2023-05-18T08:04:05.187Z,2.38
2023-05-18T08:06:31.932Z,2.08
2023-05-18T08:08:58.550Z,1.83
2023-05-18T08:11:25.606Z,2.42
2023-05-18T08:13:52.036Z,2.28
2023-05-18T08:16:18.501Z,2.15
2023-05-18T08:18:44.979Z,2.42
2023-05-18T08:21:11.397Z,2.05
2023-05-18T08:23:38.355Z,1.90
2023-05-18T08:26:04.888Z,2.30
2023-05-18T08:28:31.864Z,2.25
2023-05-18T08:30:58.443Z,2.20
2023-05-18T08:33:25.779Z,2.00
2023-05-18T08:35:52.383Z,2.08
2023-05-18T08:38:18.892Z,2.60
2023-05-18T08:41:23.023Z,2.33
2023-05-18T08:43:54.352Z,2.28
2023-05-18T08:46:22.324Z,2.03
2023-05-18T08:48:51.948Z,2.50
2023-05-18T08:51:20.542Z,2.45
2023-05-18T08:53:52.683Z,2.30
2023-05-18T08:56:22.009Z,2.42
2023-05-18T08:58:49.219Z,2.30
2023-05-18T09:01:16.419Z,2.30
2023-05-18T09:03:43.900Z,1.92
2023-05-18T09:06:10.819Z,2.35
2023-05-18T09:08:37.740Z,2.13
2023-05-18T09:11:05.064Z,2.30
2023-05-18T09:13:31.661Z,2.65
2023-05-18T09:15:58.258Z,2.35
2023-05-18T09:18:26.802Z,2.58
2023-05-18T09:20:54.878Z,2.30
2023-05-18T09:23:21.418Z,2.50
2023-05-18T09:25:49.840Z,3.03
2023-05-18T09:28:36.992Z,2.58
2023-05-18T09:31:04.643Z,2.70
2023-05-18T09:33:36.588Z,2.28
2023-05-18T09:36:07.456Z,2.58
2023-05-18T09:38:43.924Z,2.30
2023-05-18T09:41:11.241Z,2.55
2023-05-18T09:43:37.786Z,2.00
2023-05-18T09:46:08.204Z,2.60
2023-05-18T09:48:37.763Z,2.20
2023-05-18T09:51:07.414Z,2.08
2023-05-18T09:53:40.020Z,2.20
2023-05-18T09:56:09.403Z,2.47
2023-05-18T09:58:36.367Z,2.40
2023-05-18T10:01:02.907Z,2.33
2023-05-18T10:03:38.007Z,2.60
2023-05-18T10:06:06.219Z,2.58
2023-05-18T10:08:33.541Z,2.20
2023-05-18T10:11:00.559Z,2.38
2023-05-18T10:13:28.567Z,2.03
2023-05-18T10:15:56.595Z,2.15
2023-05-18T10:18:24.501Z,2.10
2023-05-18T10:20:52.597Z,2.70
2023-05-18T10:23:20.322Z,2.28
2023-05-18T10:25:48.446Z,2.30
2023-05-18T10:28:24.312Z,2.08
2023-05-18T10:30:51.612Z,2.58
2023-05-18T10:33:28.487Z,2.22
2023-05-18T10:35:55.801Z,1.95
2023-05-18T10:38:28.882Z,2.33
2023-05-18T10:40:57.679Z,2.17
2023-05-18T10:43:28.164Z,2.40
2023-05-18T10:45:59.499Z,2.35
2023-05-18T10:48:26.944Z,2.00
2023-05-18T10:50:55.042Z,2.40
2023-05-18T10:53:23.200Z,2.40
2023-05-18T10:55:50.850Z,2.55
2023-05-18T10:58:19.213Z,2.08
2023-05-18T11:00:51.352Z,2.67
2023-05-18T11:05:49.678Z,2.47
2023-05-18T11:08:26.731Z,2.43
2023-05-18T11:11:02.342Z,2.33
2023-05-18T11:13:32.496Z,2.58
2023-05-18T11:15:59.372Z,2.20
2023-05-18T11:18:49.587Z,2.33
2023-05-18T11:21:20.552Z,2.63
2023-05-18T11:24:12.878Z,2.30
2023-05-18T11:26:47.912Z,2.10
2023-05-18T11:29:23.005Z,2.00
2023-05-18T11:31:52.106Z,2.38
2023-05-18T11:34:42.113Z,2.17
2023-05-18T11:37:10.217Z,2.17
2023-05-18T11:39:44.729Z,2.40
2023-05-18T11:42:18.604Z,2.23
2023-05-18T11:44:51.706Z,2.45
2023-05-18T11:47:18.516Z,2.55
2023-05-18T11:49:48.938Z,2.63
2023-05-18T11:52:19.320Z,2.22
2023-05-18T11:54:49.613Z,2.40
2023-05-18T11:57:18.527Z,2.50
2023-05-18T11:59:50.150Z,2.47
2023-05-18T12:02:33.069Z,2.60
2023-05-18T12:05:00.760Z,2.67
2023-05-18T12:07:28.649Z,2.42
2023-05-18T12:09:59.016Z,2.70
2023-05-18T12:12:25.437Z,2.60
2023-05-18T12:14:57.004Z,2.67
2023-05-18T12:17:24.535Z,2.67
2023-05-18T12:19:51.145Z,2.42
2023-05-18T12:22:17.676Z,2.42
2023-05-18T12:24:44.529Z,2.95
2023-05-18T12:27:12.092Z,2.20
2023-05-18T12:29:40.244Z,2.60
2023-05-18T12:32:10.990Z,2.30
2023-05-18T12:34:38.848Z,2.65
2023-05-18T12:37:08.479Z,2.80
2023-05-18T12:39:36.788Z,2.30
2023-05-18T12:42:15.052Z,2.42
2023-05-18T12:44:45.605Z,2.22
2023-05-18T12:47:13.169Z,2.17
2023-05-18T12:49:41.567Z,1.88
2023-05-18T12:52:09.336Z,2.20
2023-05-18T12:54:36.052Z,2.28
2023-05-18T12:57:07.503Z,2.40
2023-05-18T12:59:33.976Z,2.28
2023-05-18T13:02:00.599Z,2.10
2023-05-18T13:04:36.163Z,2.17
2023-05-18T13:07:02.735Z,2.42
2023-05-18T13:09:29.236Z,2.13
2023-05-18T13:12:07.004Z,2.30
2023-05-18T13:14:38.337Z,2.22
2023-05-18T13:17:04.938Z,2.55
2023-05-18T13:19:34.982Z,2.40
2023-05-18T13:22:01.434Z,1.95
2023-05-18T13:24:27.891Z,2.10
2023-05-18T13:26:54.300Z,1.70
2023-05-18T13:29:21.460Z,2.05
2023-05-18T13:31:47.989Z,1.80
2023-05-18T13:34:14.493Z,2.53
2023-05-18T13:36:41.050Z,2.42
2023-05-18T13:39:07.691Z,2.15
2023-05-18T13:41:36.461Z,2.28
2023-05-18T13:44:03.596Z,2.13
2023-05-18T13:46:30.171Z,2.00
2023-05-18T13:48:56.650Z,2.55
2023-05-18T13:51:23.061Z,1.95
2023-05-18T13:53:49.519Z,1.98
2023-05-18T13:56:16.264Z,2.33
2023-05-18T13:58:44.566Z,2.10
2023-05-18T14:01:13.850Z,2.33
2023-05-18T14:03:40.598Z,2.55
2023-05-18T14:06:07.359Z,2.28
2023-05-18T14:08:33.951Z,2.60
2023-05-18T14:11:00.535Z,1.70
2023-05-18T14:13:26.993Z,2.58
2023-05-18T14:15:53.509Z,1.95
2023-05-18T14:18:19.977Z,2.13
2023-05-18T14:20:48.318Z,2.10
2023-05-18T14:23:15.028Z,2.53
2023-05-18T14:25:43.568Z,2.00
2023-05-18T14:28:10.407Z,2.13
2023-05-18T14:30:36.906Z,1.73
2023-05-18T14:33:03.376Z,2.53
2023-05-18T14:35:29.823Z,2.08
2023-05-18T14:37:56.349Z,2.35
2023-05-18T14:40:23.023Z,2.33
2023-05-18T14:42:50.890Z,1.98
2023-05-18T14:45:19.441Z,2.00
2023-05-18T14:47:45.997Z,2.25
2023-05-18T14:50:12.402Z,2.10
2023-05-18T14:52:38.895Z,1.85
2023-05-18T14:55:05.798Z,2.10
2023-05-18T14:57:32.412Z,1.85
2023-05-18T15:00:00.301Z,2.45
2023-05-18T15:02:26.766Z,2.35
2023-05-18T15:04:53.224Z,1.85
2023-05-18T15:07:19.892Z,2.38
2023-05-18T15:09:46.439Z,1.92
2023-05-18T15:12:12.965Z,1.88
2023-05-18T15:14:39.583Z,2.03
2023-05-18T15:17:07.334Z,2.00
2023-05-18T15:19:33.906Z,2.10
2023-05-18T15:22:00.484Z,2.17
2023-05-18T15:24:27.022Z,1.98
2023-05-18T15:26:53.540Z,2.20
2023-05-18T15:29:20.243Z,2.10
2023-05-18T15:31:46.909Z,2.28
2023-05-18T15:34:13.396Z,1.75
2023-05-18T15:36:39.886Z,1.65
2023-05-18T15:39:06.440Z,2.17
2023-05-18T15:41:34.028Z,1.85
2023-05-18T15:44:01.713Z,2.17
2023-05-18T15:46:32.150Z,1.98
2023-05-18T15:48:58.669Z,2.30
2023-05-18T15:51:25.262Z,1.98
2023-05-18T15:53:51.751Z,1.60
2023-05-18T15:56:18.897Z,1.80
2023-05-18T15:58:45.502Z,2.72
2023-05-18T16:01:11.993Z,2.08
2023-05-18T16:03:38.590Z,1.55
2023-05-18T16:06:05.407Z,1.92
2023-05-18T16:08:32.224Z,2.10
2023-05-18T16:10:58.735Z,1.85
2023-05-18T16:13:27.235Z,2.50
2023-05-18T16:15:53.749Z,2.30
2023-05-18T16:18:20.345Z,2.17
2023-05-18T16:20:46.809Z,1.98
2023-05-18T16:23:13.217Z,2.15
2023-05-18T16:25:39.681Z,2.15
2023-05-18T16:28:06.088Z,1.90
2023-05-18T16:30:32.900Z,2.00
2023-05-18T16:33:00.370Z,2.22
2023-05-18T16:35:27.193Z,2.13
2023-05-18T16:37:53.784Z,1.80
2023-05-18T16:40:20.450Z,1.80
2023-05-18T16:42:48.757Z,2.08
2023-05-18T16:45:15.234Z,2.00
2023-05-18T16:47:41.867Z,2.20
2023-05-18T16:50:08.767Z,2.03
2023-05-18T16:52:35.253Z,2.00
2023-05-18T16:55:01.763Z,1.88
2023-05-18T16:57:30.017Z,2.28
2023-05-18T16:59:56.931Z,2.05
2023-05-18T17:02:24.349Z,2.40
2023-05-18T17:04:50.979Z,2.55
2023-05-18T17:07:17.490Z,2.60
2023-05-18T17:09:44.265Z,2.25
2023-05-18T17:12:11.677Z,2.20
2023-05-18T17:14:38.456Z,2.33
2023-05-18T17:17:05.803Z,2.05
2023-05-18T17:19:34.600Z,2.50
2023-05-18T17:22:01.050Z,2.30
2023-05-18T17:24:27.479Z,2.00
2023-05-18T17:26:53.949Z,2.33
2023-05-18T17:29:21.908Z,2.47
2023-05-18T17:31:48.523Z,2.28
2023-05-18T17:34:15.073Z,2.47
2023-05-18T17:36:43.442Z,2.33
2023-05-18T17:39:09.986Z,2.92
2023-05-18T17:41:36.917Z,1.92
2023-05-18T17:44:03.348Z,2.45
2023-05-18T17:46:30.523Z,2.50
2023-05-18T17:48:57.045Z,2.40
2023-05-18T17:51:24.588Z,2.30
2023-05-18T17:53:51.254Z,2.53
2023-05-18T17:56:17.802Z,2.72
2023-05-18T17:58:44.240Z,2.53
2023-05-18T18:01:11.973Z,2.85
2023-05-18T18:03:38.545Z,2.40
2023-05-18T18:06:05.219Z,2.47
2023-05-18T18:08:31.715Z,2.20
2023-05-18T18:10:58.336Z,2.60
2023-05-18T18:13:24.854Z,2.45
2023-05-18T18:15:51.320Z,2.50
2023-05-18T18:18:17.717Z,2.75
2023-05-18T18:20:44.193Z,2.45
2023-05-18T18:23:10.724Z,3.13
2023-05-18T18:25:37.190Z,2.70
2023-05-18T18:28:03.598Z,2.13
2023-05-18T18:30:30.305Z,2.63
2023-05-18T18:32:56.869Z,2.40
2023-05-18T18:35:23.450Z,2.33
2023-05-18T18:37:49.839Z,2.40
2023-05-18T18:40:16.260Z,2.55
2023-05-18T18:42:42.735Z,2.53
2023-05-18T18:45:09.356Z,2.78
2023-05-18T18:47:35.812Z,2.45
2023-05-18T18:50:03.372Z,2.00
2023-05-18T18:52:29.860Z,2.38
2023-05-18T18:54:56.513Z,2.25
2023-05-18T18:57:22.928Z,2.25
2023-05-18T18:59:50.074Z,2.30
2023-05-18T19:02:17.866Z,2.30
2023-05-18T19:04:44.348Z,2.85
2023-05-18T19:07:10.922Z,2.30
2023-05-18T19:09:37.364Z,2.58
2023-05-18T19:12:04.253Z,2.40
2023-05-18T19:14:30.767Z,2.25
2023-05-18T19:16:57.180Z,2.33
2023-05-18T19:19:23.660Z,2.60
2023-05-18T19:21:50.477Z,2.60
2023-05-18T19:24:16.926Z,2.38
2023-05-18T19:26:43.345Z,2.40
2023-05-18T19:29:09.816Z,2.17
2023-05-18T19:31:37.580Z,2.60
2023-05-18T19:34:04.250Z,2.70
2023-05-18T19:36:31.289Z,2.75
2023-05-18T19:38:58.019Z,2.47
2023-05-18T19:41:24.862Z,2.50
2023-05-18T19:43:51.462Z,2.28
2023-05-18T19:46:18.664Z,2.60
2023-05-18T19:48:45.135Z,2.58
2023-05-18T19:51:11.561Z,2.70
2023-05-18T19:53:38.016Z,2.47
2023-05-18T19:56:04.470Z,2.90
2023-05-18T19:58:30.864Z,2.17
2023-05-18T20:00:57.372Z,2.22
2023-05-18T20:03:23.858Z,2.50
2023-05-18T20:05:50.260Z,2.75
2023-05-18T20:08:16.672Z,2.53
2023-05-18T20:10:44.391Z,2.63
2023-05-18T20:13:11.206Z,2.33
2023-05-18T20:15:37.705Z,2.15
2023-05-18T20:18:06.638Z,3.00
2023-05-18T20:20:35.981Z,2.72
2023-05-18T20:23:03.525Z,2.85
2023-05-18T20:25:34.917Z,2.42
2023-05-18T20:28:03.205Z,3.00
2023-05-18T20:30:30.202Z,2.55
2023-05-18T20:32:58.672Z,2.55
2023-05-18T20:35:25.968Z,2.60
2023-05-18T20:37:55.835Z,2.90
2023-05-18T20:40:23.029Z,2.85
2023-05-18T20:42:54.184Z,3.10
2023-05-18T20:45:25.292Z,2.75
2023-05-18T20:47:52.276Z,2.55
2023-05-18T20:50:19.349Z,2.60
2023-05-18T20:52:46.269Z,2.88
2023-05-18T20:55:13.828Z,2.72
2023-05-18T20:57:41.336Z,2.80
2023-05-18T21:00:08.781Z,2.80
2023-05-18T21:02:36.683Z,3.80
2023-05-18T21:05:04.597Z,4.40
2023-05-18T21:07:32.073Z,3.85
2023-05-18T21:09:58.702Z,2.97
2023-05-18T21:12:25.119Z,3.08
2023-05-18T21:14:51.557Z,2.50
2023-05-18T21:17:18.025Z,2.70
2023-05-18T21:19:44.445Z,2.85
2023-05-18T21:22:10.982Z,2.33
2023-05-18T21:24:37.491Z,2.42
2023-05-18T21:27:04.817Z,2.90
2023-05-18T21:29:31.246Z,2.63
2023-05-18T21:31:57.741Z,2.90
2023-05-18T21:34:24.285Z,2.42
2023-05-18T21:36:50.878Z,2.63
2023-05-18T21:39:17.301Z,2.92
2023-05-18T21:41:44.396Z,3.05
2023-05-18T21:44:11.122Z,3.00
2023-05-18T21:46:37.652Z,3.58
2023-05-18T21:49:05.811Z,3.53
2023-05-18T21:51:32.341Z,3.40
2023-05-18T21:53:59.246Z,4.10
2023-05-18T21:56:26.583Z,3.85
2023-05-18T21:58:53.814Z,3.92
2023-05-18T22:01:21.439Z,3.95
2023-05-18T22:03:48.244Z,3.67
2023-05-18T22:06:14.895Z,4.38
2023-05-18T22:08:41.537Z,4.00
2023-05-18T22:11:07.940Z,3.95
2023-05-18T22:13:34.440Z,4.10
2023-05-18T22:16:00.833Z,4.55
2023-05-18T22:18:27.376Z,4.82
2023-05-18T22:20:54.401Z,4.70
2023-05-18T22:23:21.597Z,4.78
2023-05-18T22:25:48.028Z,5.13
2023-05-18T22:28:17.233Z,5.10
2023-05-18T22:30:43.783Z,5.22
2023-05-18T22:33:10.228Z,5.13
2023-05-18T22:35:36.789Z,5.50
2023-05-18T22:38:03.203Z,5.43
2023-05-18T22:40:29.770Z,4.82
2023-05-18T22:42:57.173Z,5.90
2023-05-18T22:45:23.615Z,5.43
2023-05-18T22:47:51.077Z,5.65
2023-05-18T22:50:17.619Z,5.68
2023-05-18T22:52:45.836Z,5.20
2023-05-18T22:55:13.774Z,5.13
2023-05-18T22:57:40.933Z,5.13
2023-05-18T23:00:09.133Z,4.28
2023-05-18T23:02:35.687Z,4.20
2023-05-18T23:05:02.187Z,4.13
2023-05-18T23:07:28.678Z,3.90
2023-05-18T23:09:55.121Z,4.20
2023-05-18T23:12:22.218Z,4.18
2023-05-18T23:14:54.645Z,3.45
2023-05-18T23:19:50.150Z,3.58
2023-05-18T23:22:16.944Z,3.78
2023-05-18T23:24:43.414Z,4.18
2023-05-18T23:27:10.591Z,4.35
2023-05-18T23:29:36.980Z,3.90
2023-05-18T23:32:03.489Z,4.00
2023-05-18T23:34:30.108Z,4.55
2023-05-18T23:37:04.233Z,4.90
2023-05-18T23:39:31.027Z,3.97
2023-05-18T23:41:59.148Z,3.88
2023-05-18T23:44:26.175Z,3.22
2023-05-18T23:46:52.997Z,3.65
2023-05-18T23:49:19.548Z,3.40
2023-05-18T23:51:46.564Z,2.97
2023-05-18T23:54:13.154Z,3.33
2023-05-18T23:56:39.939Z,3.42
2023-05-18T23:59:06.770Z,3.03
